Time;durP1;ratioP1;P1;durP2;ratioP2;P2;SDS_P1;SDS_P2;PMS_P1;PMS_P2;Temp;Humidity;BMP_temperature;BMP_pressure;BME280_temperature;BME280_humidity;BME280_pressure;Samples;Min_cycle;Max_cycle;Signal;HPM_P1;HPM_P2
2023/09/26 00:00:20;;;;;;;3.28;2.28;;;14.20;99.90;;;;;;5072906;28;20021;-89
2023/09/26 00:02:46;;;;;;;5.85;2.60;;;14.10;99.90;;;;;;5077121;28;20016;-86
2023/09/26 00:05:12;;;;;;;4.47;2.47;;;14.00;99.90;;;;;;5076805;28;20487;-86
2023/09/26 00:07:38;;;;;;;5.28;2.40;;;14.00;99.90;;;;;;5075287;28;20111;-85
2023/09/26 00:10:09;;;;;;;4.00;2.80;;;14.00;99.90;;;;;;5075708;28;20051;-84
2023/09/26 00:12:35;;;;;;;4.30;2.22;;;14.00;99.90;;;;;;5075233;28;20036;-84
2023/09/26 00:15:01;;;;;;;3.25;2.03;;;13.90;99.90;;;;;;5076630;28;20595;-88
2023/09/26 00:17:27;;;;;;;3.55;2.15;;;13.90;99.90;;;;;;5092161;28;20107;-88
2023/09/26 00:19:53;;;;;;;3.88;2.50;;;13.80;99.90;;;;;;5075879;28;20523;-87
2023/09/26 00:22:20;;;;;;;2.88;2.28;;;13.60;99.90;;;;;;5075292;28;20020;-87
2023/09/26 00:24:45;;;;;;;2.97;2.42;;;13.70;99.90;;;;;;5075487;28;20032;-88
2023/09/26 00:27:11;;;;;;;4.50;2.30;;;13.70;99.90;;;;;;5075554;28;20043;-87
2023/09/26 00:29:37;;;;;;;3.13;2.15;;;13.60;99.90;;;;;;5091714;28;20055;-87
2023/09/26 00:32:03;;;;;;;2.83;2.25;;;13.70;99.90;;;;;;5082445;28;20027;-87
2023/09/26 00:34:29;;;;;;;3.90;2.40;;;13.70;99.90;;;;;;5094922;28;20048;-87
2023/09/26 00:36:55;;;;;;;3.00;2.20;;;13.70;99.90;;;;;;5095308;28;20035;-87
2023/09/26 00:39:21;;;;;;;4.10;2.30;;;13.70;99.90;;;;;;5073455;28;20424;-87
2023/09/26 00:41:46;;;;;;;4.32;2.10;;;13.60;99.90;;;;;;5072978;28;20028;-87
2023/09/26 00:44:12;;;;;;;3.80;2.08;;;13.50;99.90;;;;;;5096017;28;20035;-87
2023/09/26 00:46:41;;;;;;;4.47;2.25;;;13.50;99.90;;;;;;5096330;28;20028;-87
2023/09/26 00:49:08;;;;;;;4.78;2.47;;;13.50;99.90;;;;;;5096262;28;20020;-88
2023/09/26 00:51:35;;;;;;;4.40;2.40;;;13.40;99.90;;;;;;5094800;28;20389;-88
2023/09/26 00:54:02;;;;;;;3.35;2.47;;;13.30;99.90;;;;;;5096276;28;20357;-87
2023/09/26 00:56:28;;;;;;;3.30;2.20;;;13.20;99.90;;;;;;5094872;28;20036;-86
2023/09/26 00:58:54;;;;;;;6.32;2.72;;;13.10;99.90;;;;;;5096368;28;20024;-87
2023/09/26 01:01:24;;;;;;;3.60;2.42;;;13.20;99.90;;;;;;5094618;28;20472;-87
2023/09/26 01:03:50;;;;;;;4.43;2.47;;;13.30;99.90;;;;;;5095376;28;20032;-88
2023/09/26 01:06:16;;;;;;;3.90;2.72;;;13.20;99.90;;;;;;5095120;28;20058;-88
2023/09/26 01:08:41;;;;;;;3.28;2.35;;;13.30;99.90;;;;;;5094440;28;20036;-87
2023/09/26 01:11:08;;;;;;;3.92;2.58;;;13.20;99.90;;;;;;5083545;28;20029;-84
2023/09/26 01:13:33;;;;;;;4.35;2.33;;;13.10;99.90;;;;;;5073899;28;20433;-85
2023/09/26 01:16:16;;;;;;;5.05;2.63;;;13.00;99.90;;;;;;5075518;28;20066;-85
2023/09/26 01:18:42;;;;;;;4.57;2.28;;;13.00;99.90;;;;;;5074053;28;20054;-85
2023/09/26 01:21:08;;;;;;;3.63;2.53;;;13.00;99.90;;;;;;5074363;28;20028;-85
2023/09/26 01:23:36;;;;;;;4.40;2.58;;;12.90;99.90;;;;;;5074000;28;20031;-84
2023/09/26 01:26:02;;;;;;;4.30;2.47;;;12.90;99.90;;;;;;5074738;28;20075;-84
2023/09/26 01:28:28;;;;;;;6.70;2.50;;;12.90;99.90;;;;;;5090525;28;20094;-85
2023/09/26 01:30:53;;;;;;;4.13;2.47;;;12.90;99.90;;;;;;5074355;28;20028;-85
2023/09/26 01:33:21;;;;;;;4.63;2.30;;;13.00;99.90;;;;;;5074548;28;20428;-85
2023/09/26 01:35:48;;;;;;;5.60;2.35;;;13.00;99.90;;;;;;5074129;28;20024;-85
2023/09/26 01:38:14;;;;;;;3.83;2.50;;;13.10;99.90;;;;;;5075154;28;20449;-85
2023/09/26 01:40:41;;;;;;;3.15;2.22;;;13.00;99.90;;;;;;5073735;28;20041;-85
2023/09/26 01:43:07;;;;;;;5.70;2.78;;;12.90;99.90;;;;;;5074256;28;20063;-84
2023/09/26 01:45:32;;;;;;;5.85;2.40;;;12.90;99.90;;;;;;5073741;28;20056;-86
2023/09/26 01:47:59;;;;;;;4.28;2.63;;;12.90;99.90;;;;;;5090934;28;20048;-86
2023/09/26 01:50:25;;;;;;;4.57;2.25;;;12.90;99.90;;;;;;5073588;28;20060;-87
2023/09/26 01:52:50;;;;;;;5.45;2.22;;;12.90;99.90;;;;;;5073764;28;20469;-87
2023/09/26 01:55:21;;;;;;;4.13;2.63;;;12.90;99.90;;;;;;5074794;28;20458;-86
2023/09/26 01:57:48;;;;;;;3.65;2.20;;;12.90;99.90;;;;;;5073641;28;20028;-88
2023/09/26 02:00:14;;;;;;;4.22;2.47;;;13.00;99.90;;;;;;5073563;28;20535;-89
2023/09/26 02:02:41;;;;;;;2.85;2.30;;;13.00;99.90;;;;;;5073274;28;20051;-88
2023/09/26 02:05:15;;;;;;;4.57;2.53;;;12.90;99.90;;;;;;5090775;28;20035;-86
2023/09/26 02:07:41;;;;;;;3.40;2.42;;;12.90;99.90;;;;;;5077383;28;20035;-85
2023/09/26 02:10:07;;;;;;;3.95;2.13;;;12.80;99.90;;;;;;5094071;28;20024;-85
2023/09/26 02:12:35;;;;;;;3.42;2.10;;;12.70;99.90;;;;;;5093251;28;20036;-85
2023/09/26 02:15:04;;;;;;;2.67;2.03;;;12.70;99.90;;;;;;5094554;28;20085;-85
2023/09/26 02:17:30;;;;;;;4.22;2.22;;;12.70;99.90;;;;;;5094106;28;20024;-83
2023/09/26 02:19:56;;;;;;;3.03;2.17;;;12.70;99.90;;;;;;5076253;28;20483;-86
2023/09/26 02:22:21;;;;;;;3.33;1.88;;;12.70;99.90;;;;;;5073159;28;20028;-85
2023/09/26 02:24:51;;;;;;;4.53;1.95;;;12.70;99.90;;;;;;5073686;28;20051;-85
2023/09/26 02:27:17;;;;;;;4.45;2.08;;;12.80;99.90;;;;;;5073610;28;20052;-85
2023/09/26 02:29:44;;;;;;;3.28;2.17;;;12.70;99.90;;;;;;5089981;28;20066;-89
2023/09/26 02:32:10;;;;;;;4.28;2.45;;;12.70;99.90;;;;;;5073155;28;20028;-87
2023/09/26 02:34:36;;;;;;;4.63;1.92;;;12.70;99.90;;;;;;5073683;28;20072;-87
2023/09/26 02:37:02;;;;;;;3.33;2.33;;;12.70;99.90;;;;;;5073060;28;20492;-87
2023/09/26 02:39:28;;;;;;;4.78;2.10;;;12.70;99.90;;;;;;5072927;28;20021;-87
2023/09/26 02:41:53;;;;;;;4.47;2.10;;;12.70;99.90;;;;;;5073061;28;20039;-87
2023/09/26 02:44:19;;;;;;;2.58;1.67;;;12.70;99.90;;;;;;5072905;28;20040;-86
2023/09/26 02:46:45;;;;;;;2.95;2.30;;;12.60;99.90;;;;;;5073523;28;20469;-86
2023/09/26 02:49:10;;;;;;;2.38;2.08;;;12.60;99.90;;;;;;5073416;28;20024;-86
2023/09/26 02:51:36;;;;;;;3.78;2.13;;;12.50;99.90;;;;;;5072660;28;20060;-86
2023/09/26 02:54:01;;;;;;;3.70;2.50;;;12.50;99.90;;;;;;5073903;28;20035;-86
2023/09/26 02:56:27;;;;;;;3.90;2.50;;;12.40;99.90;;;;;;5072333;28;20653;-87
2023/09/26 02:58:53;;;;;;;4.20;2.35;;;12.40;99.90;;;;;;5072595;28;20039;-88
2023/09/26 03:01:19;;;;;;;3.05;2.00;;;12.40;99.90;;;;;;5073925;28;20025;-87
2023/09/26 03:03:45;;;;;;;4.25;2.40;;;12.40;99.90;;;;;;5073284;28;20028;-87
2023/09/26 03:06:11;;;;;;;6.40;2.40;;;12.40;99.90;;;;;;5072817;28;20027;-87
2023/09/26 03:08:36;;;;;;;4.45;2.25;;;12.30;99.90;;;;;;5072269;28;20025;-87
2023/09/26 03:11:03;;;;;;;3.63;2.35;;;12.20;99.90;;;;;;5073695;28;20104;-87
2023/09/26 03:13:32;;;;;;;2.72;2.20;;;12.30;99.90;;;;;;5072763;28;20436;-86
2023/09/26 03:15:59;;;;;;;4.22;2.88;;;12.20;99.90;;;;;;5072889;28;20021;-86
2023/09/26 03:18:26;;;;;;;2.95;2.47;;;12.10;99.90;;;;;;5073679;28;20070;-85
2023/09/26 03:20:54;;;;;;;3.15;2.40;;;12.00;99.90;;;;;;5073734;28;20058;-85
2023/09/26 03:23:21;;;;;;;5.35;2.50;;;12.00;99.90;;;;;;5072606;28;20063;-84
2023/09/26 03:25:47;;;;;;;2.92;2.20;;;11.90;99.90;;;;;;5073444;28;20033;-86
2023/09/26 03:28:12;;;;;;;2.75;2.28;;;11.80;99.90;;;;;;5072499;28;20035;-86
2023/09/26 03:30:42;;;;;;;2.42;1.80;;;11.70;99.90;;;;;;5073277;28;20032;-85
2023/09/26 03:33:08;;;;;;;3.78;2.40;;;11.70;99.90;;;;;;5072624;28;20044;-85
2023/09/26 03:35:33;;;;;;;3.17;1.92;;;11.80;99.90;;;;;;5072940;28;20051;-85
2023/09/26 03:37:59;;;;;;;3.97;2.30;;;11.70;99.90;;;;;;5076414;28;20423;-86
2023/09/26 03:40:25;;;;;;;3.35;2.10;;;11.60;99.90;;;;;;5076484;28;20488;-86
2023/09/26 03:42:50;;;;;;;5.22;2.08;;;11.70;99.90;;;;;;5076780;28;20094;-85
2023/09/26 03:45:16;;;;;;;2.65;1.90;;;11.80;99.90;;;;;;5077396;28;20029;-87
2023/09/26 03:47:41;;;;;;;2.63;1.90;;;11.80;99.90;;;;;;5075725;28;20024;-85
2023/09/26 03:50:08;;;;;;;2.47;1.90;;;11.80;99.90;;;;;;5076126;28;20465;-86
2023/09/26 03:52:34;;;;;;;4.47;2.13;;;11.90;99.90;;;;;;5075796;28;20499;-86
2023/09/26 03:54:59;;;;;;;4.35;2.28;;;11.90;99.90;;;;;;5077173;28;20041;-86
2023/09/26 03:57:25;;;;;;;4.63;2.10;;;11.90;99.90;;;;;;5093000;28;20036;-85
2023/09/26 03:59:51;;;;;;;3.30;2.20;;;11.90;99.90;;;;;;5075540;28;20067;-84
2023/09/26 04:02:17;;;;;;;6.30;1.95;;;11.90;99.90;;;;;;5077155;28;20056;-85
2023/09/26 04:04:42;;;;;;;2.42;1.90;;;11.70;99.90;;;;;;5075533;28;20058;-85
2023/09/26 04:07:08;;;;;;;3.15;2.20;;;11.60;99.90;;;;;;5075883;28;20118;-89
2023/09/26 04:09:34;;;;;;;3.33;2.13;;;11.50;99.90;;;;;;5075925;28;20120;-88
2023/09/26 04:12:02;;;;;;;3.05;1.98;;;11.40;99.90;;;;;;5075705;28;20040;-89
2023/09/26 04:14:27;;;;;;;4.20;1.90;;;11.50;99.90;;;;;;5075812;28;20070;-88
2023/09/26 04:16:53;;;;;;;4.50;2.30;;;11.50;99.90;;;;;;5075415;28;20024;-88
2023/09/26 04:19:18;;;;;;;4.40;2.03;;;11.50;99.90;;;;;;5076695;28;20428;-89
2023/09/26 04:21:45;;;;;;;3.97;2.15;;;11.50;99.90;;;;;;5076167;28;20031;-88
2023/09/26 04:24:10;;;;;;;3.45;1.95;;;11.40;99.90;;;;;;5075266;28;20036;-88
2023/09/26 04:26:36;;;;;;;4.05;2.03;;;11.20;99.90;;;;;;5075034;28;20384;-87
2023/09/26 04:29:02;;;;;;;2.55;2.00;;;11.30;99.90;;;;;;5075564;28;20032;-88
2023/09/26 04:31:27;;;;;;;2.63;1.80;;;11.30;99.90;;;;;;5075745;28;20024;-87
2023/09/26 04:33:53;;;;;;;3.63;1.98;;;11.40;99.90;;;;;;5091628;28;20396;-87
2023/09/26 04:36:18;;;;;;;3.40;2.35;;;11.40;99.90;;;;;;5075228;28;20042;-88
2023/09/26 04:38:46;;;;;;;5.72;2.30;;;11.40;99.90;;;;;;5075875;28;20025;-88
2023/09/26 04:41:13;;;;;;;3.35;2.00;;;11.40;99.90;;;;;;5075216;28;20028;-89
2023/09/26 04:43:38;;;;;;;4.38;2.22;;;11.30;99.90;;;;;;5074784;28;20465;-89
2023/09/26 04:46:14;;;;;;;2.72;2.15;;;11.40;99.90;;;;;;5076076;28;20028;-84
2023/09/26 04:48:41;;;;;;;3.15;2.00;;;11.40;99.90;;;;;;5075579;28;20063;-87
2023/09/26 04:51:12;;;;;;;4.30;1.80;;;11.30;99.90;;;;;;5075219;28;20027;-87
2023/09/26 04:53:37;;;;;;;5.25;1.80;;;11.30;99.90;;;;;;5074787;28;20039;-86
2023/09/26 04:56:04;;;;;;;4.28;2.10;;;11.20;99.90;;;;;;5074951;28;20037;-86
2023/09/26 04:58:30;;;;;;;3.13;2.10;;;11.20;99.90;;;;;;5074852;28;20047;-87
2023/09/26 05:00:57;;;;;;;3.13;2.08;;;11.30;99.90;;;;;;5074472;28;20115;-87
2023/09/26 05:03:23;;;;;;;2.28;1.90;;;11.30;99.90;;;;;;5080436;28;20059;-88
2023/09/26 05:05:49;;;;;;;3.88;1.98;;;11.20;99.90;;;;;;5055453;28;20021;-88
2023/09/26 05:08:15;;;;;;;3.55;2.20;;;11.20;99.90;;;;;;5055438;28;20021;-87
2023/09/26 05:10:41;;;;;;;4.93;2.00;;;11.20;99.90;;;;;;5055367;28;20078;-86
2023/09/26 05:13:07;;;;;;;3.13;1.90;;;11.20;99.90;;;;;;5055753;28;20527;-87
2023/09/26 05:15:34;;;;;;;7.18;2.40;;;11.30;99.90;;;;;;5054471;28;20029;-86
2023/09/26 05:18:00;;;;;;;3.42;2.05;;;11.30;99.90;;;;;;5061313;28;20456;-89
2023/09/26 05:20:26;;;;;;;2.55;1.95;;;11.20;99.90;;;;;;5074655;28;20123;-88
2023/09/26 05:22:52;;;;;;;2.25;1.83;;;11.20;99.90;;;;;;5074178;28;20627;-88
2023/09/26 05:25:18;;;;;;;4.30;2.17;;;11.30;99.90;;;;;;5074533;28;20037;-88
2023/09/26 05:27:44;;;;;;;4.43;2.10;;;11.30;99.90;;;;;;5073856;28;20032;-86
2023/09/26 05:30:13;;;;;;;4.85;1.92;;;11.30;99.90;;;;;;5074287;28;20532;-87
2023/09/26 05:32:40;;;;;;;2.65;1.70;;;11.20;99.90;;;;;;5074736;28;20063;-87
2023/09/26 05:35:07;;;;;;;2.70;1.80;;;11.20;99.90;;;;;;5074507;28;20131;-87
2023/09/26 05:37:33;;;;;;;5.03;2.10;;;11.20;99.90;;;;;;5074627;28;20074;-91
2023/09/26 05:39:59;;;;;;;3.08;1.92;;;11.30;99.90;;;;;;5074129;28;20025;-87
2023/09/26 05:42:25;;;;;;;3.25;1.90;;;11.30;99.90;;;;;;5074457;28;20028;-86
2023/09/26 05:44:51;;;;;;;2.42;1.88;;;11.30;99.90;;;;;;5073487;28;20025;-86
2023/09/26 05:47:17;;;;;;;3.75;2.25;;;11.30;99.90;;;;;;5070858;28;20528;-88
2023/09/26 05:49:42;;;;;;;3.85;2.08;;;11.30;99.90;;;;;;5065683;28;20033;-89
2023/09/26 05:52:08;;;;;;;4.30;1.88;;;11.30;99.90;;;;;;5085403;28;20021;-85
2023/09/26 05:54:34;;;;;;;3.83;2.15;;;11.20;99.90;;;;;;5075698;28;20511;-84
2023/09/26 05:57:03;;;;;;;3.05;2.00;;;11.20;99.90;;;;;;5072488;28;20170;-85
2023/09/26 05:59:29;;;;;;;3.58;2.10;;;11.20;99.90;;;;;;5070115;28;20024;-85
2023/09/26 06:01:54;;;;;;;3.53;2.03;;;11.10;99.90;;;;;;5071592;28;20034;-85
2023/09/26 06:04:20;;;;;;;3.92;1.95;;;11.20;99.90;;;;;;5080858;28;20039;-85
2023/09/26 06:06:45;;;;;;;4.47;2.28;;;11.20;99.90;;;;;;5057657;28;20086;-84
2023/09/26 06:09:11;;;;;;;6.50;2.10;;;11.30;99.90;;;;;;5070610;28;20024;-84
2023/09/26 06:11:37;;;;;;;4.57;2.50;;;11.30;99.90;;;;;;5071294;28;20029;-85
2023/09/26 06:14:02;;;;;;;3.42;2.13;;;11.20;99.90;;;;;;5063362;28;20031;-84
2023/09/26 06:16:28;;;;;;;6.03;2.45;;;11.30;99.90;;;;;;5071548;28;20381;-85
2023/09/26 06:18:55;;;;;;;3.90;2.30;;;11.30;99.90;;;;;;5065566;28;20488;-85
2023/09/26 06:21:20;;;;;;;4.43;2.30;;;11.30;99.90;;;;;;5083929;28;20021;-84
2023/09/26 06:23:48;;;;;;;3.53;2.20;;;11.40;99.90;;;;;;5064105;28;20036;-85
2023/09/26 06:26:14;;;;;;;3.85;2.30;;;11.40;99.90;;;;;;5068344;28;20075;-85
2023/09/26 06:28:40;;;;;;;4.63;2.40;;;11.40;99.90;;;;;;5060142;28;20063;-86
2023/09/26 06:31:07;;;;;;;4.47;2.20;;;11.50;99.90;;;;;;5070632;28;20420;-85
2023/09/26 06:33:34;;;;;;;3.22;2.17;;;11.50;99.90;;;;;;5070060;28;20036;-86
2023/09/26 06:36:00;;;;;;;6.15;2.17;;;11.50;99.90;;;;;;5070447;28;20343;-85
2023/09/26 06:38:26;;;;;;;4.47;2.45;;;11.60;99.90;;;;;;5056801;28;20470;-85
2023/09/26 06:41:06;;;;;;;7.95;2.20;;;11.60;99.90;;;;;;5071182;28;20056;-85
2023/09/26 06:43:32;;;;;;;3.85;2.30;;;11.70;99.90;;;;;;5071204;28;20029;-85
2023/09/26 06:46:02;;;;;;;7.55;2.28;;;11.70;99.90;;;;;;5071933;28;20025;-88
2023/09/26 06:48:27;;;;;;;3.42;2.45;;;11.70;99.90;;;;;;5053317;28;20035;-89
2023/09/26 06:50:53;;;;;;;4.35;2.08;;;11.70;99.90;;;;;;5057912;28;20433;-89
2023/09/26 06:53:18;;;;;;;4.30;2.45;;;11.70;99.90;;;;;;5077728;28;20098;-88
2023/09/26 06:55:44;;;;;;;6.60;2.50;;;11.80;99.90;;;;;;5070827;28;20134;-87
2023/09/26 06:58:09;;;;;;;2.85;2.38;;;11.80;99.90;;;;;;5071279;28;20032;-88
2023/09/26 07:00:37;;;;;;;2.92;2.50;;;11.80;99.90;;;;;;5059194;28;20032;-86
2023/09/26 07:03:04;;;;;;;4.63;2.50;;;11.80;99.90;;;;;;5068244;28;20059;-88
2023/09/26 07:05:30;;;;;;;3.97;2.50;;;11.80;99.90;;;;;;5070730;28;20078;-88
2023/09/26 07:07:55;;;;;;;4.95;2.92;;;11.90;99.90;;;;;;5063034;28;20610;-88
2023/09/26 07:10:22;;;;;;;4.63;2.90;;;12.00;99.90;;;;;;5085987;28;20059;-87
2023/09/26 07:12:54;;;;;;;5.45;2.75;;;12.00;99.90;;;;;;5074264;28;20052;-87
2023/09/26 07:15:19;;;;;;;4.97;2.92;;;12.10;99.90;;;;;;5068198;28;20036;-87
2023/09/26 07:17:45;;;;;;;5.75;2.67;;;12.10;99.90;;;;;;5065279;28;20048;-87
2023/09/26 07:20:15;;;;;;;4.43;2.92;;;12.20;99.90;;;;;;5074813;28;20039;-88
2023/09/26 07:22:41;;;;;;;3.58;2.55;;;12.30;99.90;;;;;;5080750;28;20024;-88
2023/09/26 07:25:07;;;;;;;5.22;3.00;;;12.30;99.90;;;;;;5074268;28;20043;-87
2023/09/26 07:27:33;;;;;;;5.03;2.90;;;12.40;99.90;;;;;;5074012;28;20032;-86
2023/09/26 07:29:58;;;;;;;5.60;3.22;;;12.50;99.90;;;;;;5074614;28;20025;-89
2023/09/26 07:32:24;;;;;;;4.80;2.97;;;12.60;99.90;;;;;;5069041;28;20119;-90
2023/09/26 07:34:50;;;;;;;4.95;2.92;;;12.60;99.90;;;;;;5067056;28;20037;-90
2023/09/26 07:37:15;;;;;;;6.13;3.20;;;12.70;99.90;;;;;;5073931;28;20081;-89
2023/09/26 07:39:49;;;;;;;6.05;3.05;;;12.80;99.90;;;;;;5064011;28;20033;-90
2023/09/26 07:42:14;;;;;;;4.13;3.03;;;12.80;99.90;;;;;;5074843;28;20098;-87
2023/09/26 07:44:40;;;;;;;5.80;3.78;;;12.80;99.90;;;;;;5074584;28;20056;-86
2023/09/26 07:47:06;;;;;;;4.32;2.83;;;12.90;99.90;;;;;;5071249;28;20409;-85
2023/09/26 07:49:31;;;;;;;6.70;3.25;;;13.00;99.90;;;;;;5065387;28;20067;-86
2023/09/26 07:51:57;;;;;;;7.45;3.13;;;13.00;99.90;;;;;;5067649;28;20140;-85
2023/09/26 07:54:22;;;;;;;4.28;3.05;;;13.10;99.90;;;;;;5073947;28;20428;-86
2023/09/26 07:56:48;;;;;;;7.38;3.03;;;13.10;99.90;;;;;;5070290;28;20078;-84
2023/09/26 07:59:14;;;;;;;5.30;3.10;;;13.20;99.90;;;;;;5072898;28;20025;-90
2023/09/26 08:01:40;;;;;;;7.63;3.28;;;13.40;99.90;;;;;;5060779;28;20031;-88
2023/09/26 08:04:07;;;;;;;7.22;3.70;;;13.50;99.90;;;;;;5065927;28;20488;-91
2023/09/26 08:06:33;;;;;;;6.53;3.40;;;13.40;99.90;;;;;;5073422;28;20439;-88
2023/09/26 08:08:59;;;;;;;5.47;3.10;;;13.50;99.90;;;;;;5072583;28;20032;-84
2023/09/26 08:11:27;;;;;;;6.35;3.35;;;13.50;99.90;;;;;;5070032;28;20385;-87
2023/09/26 08:13:54;;;;;;;5.65;3.15;;;13.50;99.90;;;;;;5065154;28;20085;-86
2023/09/26 08:16:21;;;;;;;21.52;10.48;;;13.60;99.90;;;;;;5072917;28;20038;-92
2023/09/26 08:18:47;;;;;;;16.25;7.28;;;13.60;99.90;;;;;;5065104;28;20047;-87
2023/09/26 08:21:13;;;;;;;21.25;8.63;;;13.70;99.90;;;;;;5071925;28;20473;-85
2023/09/26 08:23:39;;;;;;;10.93;6.05;;;13.70;99.90;;;;;;5071833;28;20033;-82
2023/09/26 08:26:07;;;;;;;12.75;4.85;;;13.70;99.90;;;;;;5074119;28;20033;-82
2023/09/26 08:28:34;;;;;;;21.23;5.38;;;13.70;99.90;;;;;;5069268;28;20050;-83
2023/09/26 08:31:05;;;;;;;27.63;5.65;;;13.80;99.90;;;;;;5075421;28;20044;-82
2023/09/26 08:33:31;;;;;;;26.90;5.13;;;13.80;99.90;;;;;;5071456;28;20059;-84
2023/09/26 08:35:57;;;;;;;61.50;7.75;;;13.80;99.90;;;;;;5067206;28;20037;-83
2023/09/26 08:38:22;;;;;;;112.38;11.77;;;13.90;99.90;;;;;;5078373;28;20082;-83
2023/09/26 08:40:51;;;;;;;34.33;5.85;;;14.00;99.90;;;;;;5064879;28;20076;-82
2023/09/26 08:43:24;;;;;;;9.18;3.78;;;14.10;99.90;;;;;;5072765;28;20025;-84
2023/09/26 08:45:50;;;;;;;5.07;3.15;;;14.20;99.90;;;;;;5072985;28;20021;-85
2023/09/26 08:48:16;;;;;;;5.15;2.78;;;14.30;99.90;;;;;;5072975;28;20567;-86
2023/09/26 08:50:42;;;;;;;5.25;2.80;;;14.40;99.90;;;;;;5081205;28;20021;-85
2023/09/26 08:53:07;;;;;;;4.60;2.60;;;14.40;99.90;;;;;;5070582;28;20488;-84
2023/09/26 08:55:34;;;;;;;8.70;4.07;;;14.40;99.90;;;;;;5064108;28;20037;-84
2023/09/26 08:58:00;;;;;;;10.07;3.38;;;14.40;99.90;;;;;;5073555;28;20052;-86
2023/09/26 09:00:26;;;;;;;17.42;3.95;;;14.40;99.90;;;;;;5083643;28;20036;-86
2023/09/26 09:02:52;;;;;;;44.10;6.53;;;14.40;99.90;;;;;;5058933;28;20036;-85
2023/09/26 09:05:19;;;;;;;38.35;5.68;;;14.40;99.90;;;;;;5073034;28;20131;-92
2023/09/26 09:07:46;;;;;;;36.75;5.72;;;14.50;99.90;;;;;;5083900;28;20039;-88
2023/09/26 09:10:13;;;;;;;23.90;4.93;;;14.50;99.90;;;;;;5072633;28;20025;-83
2023/09/26 09:12:40;;;;;;;18.30;4.50;;;14.50;99.90;;;;;;5071397;28;20021;-85
2023/09/26 09:15:15;;;;;;;9.57;3.35;;;14.60;99.90;;;;;;5070963;28;20067;-86
2023/09/26 09:17:49;;;;;;;4.72;2.80;;;14.70;99.90;;;;;;5072152;28;20020;-84
2023/09/26 09:20:31;;;;;;;108.97;12.15;;;14.80;99.90;;;;;;5069095;28;20495;-84
2023/09/26 09:23:05;;;;;;;21.40;5.97;;;14.90;99.90;;;;;;5066810;28;20039;-86
2023/09/26 09:25:36;;;;;;;20.42;4.18;;;14.90;99.90;;;;;;5071280;28;20056;-85
2023/09/26 09:28:04;;;;;;;13.40;3.65;;;14.90;99.90;;;;;;5091179;28;20458;-85
2023/09/26 09:30:39;;;;;;;8.15;2.97;;;14.90;99.90;;;;;;5071449;28;20122;-84
2023/09/26 09:33:06;;;;;;;6.15;2.78;;;15.00;99.90;;;;;;5071694;28;20033;-85
2023/09/26 09:35:33;;;;;;;4.85;2.72;;;15.00;99.90;;;;;;5082592;28;20123;-84
2023/09/26 09:37:59;;;;;;;5.40;2.88;;;15.10;99.90;;;;;;5079549;28;20033;-84
2023/09/26 09:40:25;;;;;;;5.65;3.10;;;15.20;99.90;;;;;;5073016;28;20081;-83
2023/09/26 09:42:51;;;;;;;7.07;3.60;;;15.30;99.90;;;;;;5072130;28;20028;-85
2023/09/26 09:45:18;;;;;;;6.30;3.50;;;15.30;99.90;;;;;;5071520;28;20028;-84
2023/09/26 09:47:48;;;;;;;7.60;3.33;;;15.30;99.90;;;;;;5072393;28;20385;-84
2023/09/26 09:50:15;;;;;;;8.10;3.50;;;15.50;99.90;;;;;;5064388;28;20033;-83
2023/09/26 09:52:48;;;;;;;6.68;3.13;;;15.50;99.90;;;;;;5070583;28;20432;-84
2023/09/26 09:55:23;;;;;;;6.25;2.70;;;15.50;99.90;;;;;;5071137;28;20051;-83
2023/09/26 09:57:51;;;;;;;8.85;3.13;;;15.50;99.90;;;;;;5070855;28;20027;-82
2023/09/26 10:00:20;;;;;;;9.75;3.05;;;15.50;99.90;;;;;;5072003;28;20092;-83
2023/09/26 10:02:46;;;;;;;7.43;3.05;;;15.50;99.90;;;;;;5070916;28;20036;-84
2023/09/26 10:05:14;;;;;;;10.18;3.00;;;15.50;99.90;;;;;;5072868;28;20028;-84
2023/09/26 10:07:42;;;;;;;102.95;13.65;;;15.60;99.90;;;;;;5072525;28;20505;-84
2023/09/26 10:10:09;;;;;;;77.30;10.60;;;15.60;99.90;;;;;;5072546;28;20024;-84
2023/09/26 10:12:40;;;;;;;25.23;5.50;;;15.60;99.90;;;;;;5071357;28;20075;-84
2023/09/26 10:15:11;;;;;;;8.82;4.55;;;15.70;99.90;;;;;;5079776;28;20036;-83
2023/09/26 10:17:39;;;;;;;6.65;3.38;;;15.80;99.90;;;;;;5071469;28;20025;-84
2023/09/26 10:20:07;;;;;;;6.60;3.42;;;15.90;99.90;;;;;;5071589;28;20028;-84
2023/09/26 10:22:35;;;;;;;11.07;3.08;;;16.10;99.90;;;;;;5071481;28;20032;-84
2023/09/26 10:25:02;;;;;;;10.35;3.40;;;16.00;99.90;;;;;;5056634;28;20211;-84
2023/09/26 10:27:31;;;;;;;5.07;2.85;;;16.20;99.90;;;;;;5067720;28;20024;-84
2023/09/26 10:29:57;;;;;;;5.88;3.28;;;16.20;99.90;;;;;;5071814;28;20082;-84
2023/09/26 10:32:31;;;;;;;5.50;2.88;;;16.30;99.90;;;;;;5071018;28;20036;-82
2023/09/26 10:34:58;;;;;;;5.47;3.00;;;16.40;99.90;;;;;;5070781;28;20029;-83
2023/09/26 10:37:26;;;;;;;5.03;2.92;;;16.50;99.90;;;;;;5068860;28;20043;-85
2023/09/26 10:39:52;;;;;;;4.68;2.80;;;16.60;99.90;;;;;;5059984;28;20037;-84
2023/09/26 10:42:24;;;;;;;7.75;2.85;;;16.60;99.90;;;;;;5069376;28;20055;-87
2023/09/26 10:44:51;;;;;;;5.95;2.55;;;16.60;99.90;;;;;;5070919;28;20415;-84
2023/09/26 10:47:23;;;;;;;5.03;2.28;;;16.60;99.90;;;;;;5070735;28;20035;-83
2023/09/26 10:49:49;;;;;;;4.60;2.42;;;16.60;99.90;;;;;;5078786;28;20024;-84
2023/09/26 10:52:16;;;;;;;5.45;2.88;;;16.70;99.90;;;;;;5071049;28;20113;-84
2023/09/26 10:54:42;;;;;;;4.55;2.50;;;16.70;99.90;;;;;;5069140;28;20036;-84
2023/09/26 10:57:16;;;;;;;5.53;3.22;;;16.80;99.90;;;;;;5062680;28;20477;-83
2023/09/26 10:59:41;;;;;;;4.78;3.08;;;16.80;99.90;;;;;;5070716;28;20526;-86
2023/09/26 11:02:07;;;;;;;5.90;2.60;;;16.90;99.90;;;;;;5071389;28;20024;-85
2023/09/26 11:04:34;;;;;;;4.00;2.50;;;17.00;99.90;;;;;;5062231;28;20144;-86
2023/09/26 11:07:01;;;;;;;4.60;2.80;;;17.10;99.90;;;;;;5060011;28;20047;-83
2023/09/26 11:09:27;;;;;;;3.47;2.13;;;17.20;99.90;;;;;;5070203;28;20465;-83
2023/09/26 11:11:56;;;;;;;19.65;3.95;;;17.20;99.90;;;;;;5068348;28;20141;-83
2023/09/26 11:14:26;;;;;;;9.18;2.90;;;17.30;99.90;;;;;;5058345;28;20032;-83
2023/09/26 11:16:52;;;;;;;6.68;2.72;;;17.30;99.90;;;;;;5070191;28;20039;-84
2023/09/26 11:19:18;;;;;;;7.95;2.75;;;17.50;99.90;;;;;;5071293;28;20024;-84
2023/09/26 11:21:48;;;;;;;18.35;4.75;;;17.50;99.90;;;;;;5069640;28;20120;-86
2023/09/26 11:24:31;;;;;;;7.72;2.40;;;17.70;99.90;;;;;;5070218;28;20039;-85
2023/09/26 11:27:04;;;;;;;7.03;2.70;;;17.70;99.90;;;;;;5069564;28;20025;-85
2023/09/26 11:29:31;;;;;;;4.45;2.13;;;17.60;99.90;;;;;;5070109;28;20032;-90
2023/09/26 11:31:57;;;;;;;3.78;2.30;;;17.70;99.90;;;;;;5070186;28;20028;-89
2023/09/26 11:34:24;;;;;;;10.50;3.70;;;17.70;99.90;;;;;;5070050;28;20067;-89
2023/09/26 11:36:52;;;;;;;5.53;2.72;;;17.80;99.90;;;;;;5071046;28;20021;-89
2023/09/26 11:39:22;;;;;;;10.10;2.67;;;17.80;99.90;;;;;;5069638;28;20028;-90
2023/09/26 11:42:02;;;;;;;6.72;2.50;;;17.90;99.90;;;;;;5068713;28;20107;-92
2023/09/26 11:44:28;;;;;;;4.35;2.33;;;18.00;99.90;;;;;;5063536;28;20041;-89
2023/09/26 11:46:53;;;;;;;10.73;3.10;;;18.00;99.90;;;;;;5070871;28;20033;-87
2023/09/26 11:49:19;;;;;;;3.88;2.33;;;18.20;99.90;;;;;;5067297;28;20024;-89
2023/09/26 11:51:48;;;;;;;6.85;2.55;;;18.20;99.90;;;;;;5070832;28;20043;-85
2023/09/26 11:54:13;;;;;;;5.88;2.35;;;18.30;99.90;;;;;;5069115;28;20036;-84
2023/09/26 11:56:43;;;;;;;6.57;2.45;;;18.40;99.90;;;;;;5069318;28;20024;-85
2023/09/26 11:59:09;;;;;;;5.70;2.47;;;18.60;99.90;;;;;;5074013;28;20033;-83
2023/09/26 12:01:35;;;;;;;16.55;3.20;;;18.70;99.90;;;;;;5073259;28;20461;-83
2023/09/26 12:04:06;;;;;;;10.50;2.20;;;18.80;99.90;;;;;;5080227;28;20405;-83
2023/09/26 12:06:33;;;;;;;5.68;2.30;;;19.00;99.90;;;;;;5073456;28;20024;-84
2023/09/26 12:08:59;;;;;;;10.43;2.55;;;19.10;99.90;;;;;;5073276;28;20025;-86
2023/09/26 12:11:25;;;;;;;4.25;2.30;;;19.20;99.90;;;;;;5061819;28;20054;-83
2023/09/26 12:13:51;;;;;;;13.85;2.83;;;19.40;99.90;;;;;;5074572;28;20562;-85
2023/09/26 12:16:17;;;;;;;11.63;3.30;;;19.60;99.90;;;;;;5063351;28;20128;-84
2023/09/26 12:18:42;;;;;;;256.88;21.80;;;19.70;99.90;;;;;;5074217;28;20031;-84
2023/09/26 12:21:09;;;;;;;121.22;14.48;;;19.90;99.90;;;;;;5072446;28;20059;-85
2023/09/26 12:23:35;;;;;;;23.92;4.28;;;20.10;99.90;;;;;;5071171;28;20167;-85
2023/09/26 12:26:01;;;;;;;25.92;4.10;;;20.30;99.90;;;;;;5083922;28;20513;-86
2023/09/26 12:28:26;;;;;;;145.23;15.90;;;20.60;99.90;;;;;;5070409;28;20033;-83
2023/09/26 12:30:52;;;;;;;70.55;9.13;;;20.80;99.90;;;;;;5072735;28;20112;-85
2023/09/26 12:33:18;;;;;;;7.03;3.20;;;21.00;99.90;;;;;;5065732;28;20045;-86
2023/09/26 12:35:44;;;;;;;15.80;2.88;;;21.20;99.90;;;;;;5072548;28;20388;-85
2023/09/26 12:38:10;;;;;;;6.07;1.98;;;21.40;99.90;;;;;;5071562;28;20028;-83
2023/09/26 12:40:36;;;;;;;326.60;35.33;;;21.60;99.90;;;;;;5060757;28;20380;-87
2023/09/26 12:43:02;;;;;;;305.10;27.90;;;21.80;99.90;;;;;;5072617;28;20485;-89